Time;durP1;ratioP1;P1;durP2;ratioP2;P2;SDS_P1;SDS_P2;PMS_P1;PMS_P2;Temp;Humidity;BMP_temperature;BMP_pressure;BME280_temperature;BME280_humidity;BME280_pressure;Samples;Min_cycle;Max_cycle;Signal;HPM_P1;HPM_P2
2023/07/21 00:02:19;;;;;;;3.47;1.60;;;21.00;74.00;;;;;;5038819;28;20524;-79
2023/07/21 00:04:45;;;;;;;6.72;1.80;;;21.00;74.00;;;;;;5040809;28;20540;-80
2023/07/21 00:07:11;;;;;;;4.07;1.90;;;21.00;74.10;;;;;;5051534;28;20029;-80
2023/07/21 00:09:36;;;;;;;4.90;1.70;;;21.00;74.10;;;;;;5047290;28;20043;-79
2023/07/21 00:12:03;;;;;;;6.78;1.80;;;21.00;74.10;;;;;;5050654;28;20017;-80
2023/07/21 00:14:29;;;;;;;10.13;1.85;;;20.90;74.00;;;;;;5043677;28;20013;-80
2023/07/21 00:16:55;;;;;;;3.38;1.67;;;21.00;74.10;;;;;;5044178;28;20032;-79
2023/07/21 00:19:24;;;;;;;2.65;1.70;;;21.00;74.20;;;;;;5031210;28;20064;-80
2023/07/21 00:21:51;;;;;;;3.53;1.77;;;20.90;74.10;;;;;;5049535;28;20071;-80
2023/07/21 00:24:18;;;;;;;5.40;1.92;;;21.00;74.20;;;;;;5072860;28;20024;-80
2023/07/21 00:26:45;;;;;;;4.65;1.73;;;21.00;74.20;;;;;;5065847;28;20032;-79
2023/07/21 00:29:12;;;;;;;7.55;1.70;;;21.00;74.30;;;;;;5064319;28;20386;-80
2023/07/21 00:31:38;;;;;;;11.30;1.73;;;21.00;74.40;;;;;;5064122;28;20571;-78
2023/07/21 00:34:05;;;;;;;4.05;1.63;;;21.00;74.30;;;;;;5066054;28;20020;-80
2023/07/21 00:36:31;;;;;;;7.97;1.83;;;20.90;74.30;;;;;;5064011;28;20031;-80
2023/07/21 00:38:58;;;;;;;3.90;2.08;;;20.90;74.30;;;;;;5065992;28;20020;-80
2023/07/21 00:41:25;;;;;;;6.20;1.80;;;20.90;74.40;;;;;;5064872;28;20024;-80
2023/07/21 00:43:51;;;;;;;4.07;1.85;;;20.90;74.30;;;;;;5065102;28;20032;-80
2023/07/21 00:46:17;;;;;;;2.95;1.40;;;20.90;74.40;;;;;;5045633;28;20021;-80
2023/07/21 00:48:43;;;;;;;2.85;1.40;;;20.90;74.30;;;;;;5046232;28;20397;-80
2023/07/21 00:51:09;;;;;;;4.43;1.50;;;20.90;74.40;;;;;;5048364;28;20032;-80
2023/07/21 00:53:36;;;;;;;3.45;1.58;;;20.90;74.40;;;;;;5064521;28;20075;-80
2023/07/21 00:56:02;;;;;;;6.03;1.25;;;20.90;74.40;;;;;;5069531;28;20364;-80
2023/07/21 00:58:30;;;;;;;1.50;1.30;;;20.90;74.50;;;;;;5066438;28;20481;-80
2023/07/21 01:00:55;;;;;;;4.90;1.70;;;20.90;74.50;;;;;;5067829;28;20036;-80
2023/07/21 01:03:22;;;;;;;3.00;1.55;;;20.90;74.50;;;;;;5065380;28;20380;-80
2023/07/21 01:05:50;;;;;;;1.70;1.25;;;20.90;74.50;;;;;;5066327;28;20381;-79
2023/07/21 01:08:17;;;;;;;4.53;1.77;;;20.90;75.40;;;;;;5064592;28;20020;-80
2023/07/21 01:10:44;;;;;;;5.90;1.60;;;20.90;74.60;;;;;;5065853;28;20036;-80
2023/07/21 01:13:11;;;;;;;6.85;1.75;;;20.90;74.60;;;;;;5068512;28;20104;-80
2023/07/21 01:15:43;;;;;;;3.33;1.60;;;20.90;74.60;;;;;;5067550;28;20564;-79
2023/07/21 01:18:10;;;;;;;3.28;1.42;;;20.90;74.60;;;;;;5068847;28;20020;-80
2023/07/21 01:20:37;;;;;;;3.13;1.65;;;20.90;74.60;;;;;;5069201;28;20031;-80
2023/07/21 01:23:15;;;;;;;5.95;1.92;;;20.90;74.60;;;;;;5051260;28;20041;-79
2023/07/21 01:25:42;;;;;;;3.15;1.50;;;20.90;74.70;;;;;;5041783;28;20065;-80
2023/07/21 01:28:11;;;;;;;4.60;2.22;;;20.90;74.70;;;;;;5039550;28;20017;-80
2023/07/21 01:30:38;;;;;;;2.15;1.40;;;20.90;74.70;;;;;;5043707;28;20100;-80
2023/07/21 01:33:05;;;;;;;1.33;1.17;;;20.90;74.70;;;;;;5045221;28;20060;-79
2023/07/21 01:35:32;;;;;;;3.33;1.60;;;20.90;74.80;;;;;;5025725;28;20021;-80
2023/07/21 01:37:59;;;;;;;4.63;1.75;;;20.90;74.80;;;;;;5042805;28;20018;-80
2023/07/21 01:40:26;;;;;;;6.20;1.50;;;20.90;74.80;;;;;;5042406;28;20533;-80
2023/07/21 01:42:52;;;;;;;6.93;2.13;;;20.90;74.90;;;;;;5050649;28;20025;-79
2023/07/21 01:45:18;;;;;;;6.47;1.55;;;20.90;74.90;;;;;;5045060;28;20469;-80
2023/07/21 01:47:45;;;;;;;4.72;1.77;;;20.90;75.00;;;;;;5044703;28;20108;-77
2023/07/21 01:50:13;;;;;;;5.72;1.65;;;20.90;74.90;;;;;;5046421;28;20028;-80
2023/07/21 01:52:41;;;;;;;6.10;1.58;;;20.90;75.00;;;;;;5044326;28;20036;-79
2023/07/21 01:55:19;;;;;;;2.92;1.30;;;20.90;75.10;;;;;;5041830;28;20588;-80
2023/07/21 01:57:54;;;;;;;4.40;1.75;;;20.90;75.50;;;;;;5042430;28;20029;-79
2023/07/21 02:00:22;;;;;;;4.78;1.40;;;20.80;75.00;;;;;;5043985;28;20021;-80
2023/07/21 02:02:50;;;;;;;2.47;1.75;;;20.90;75.10;;;;;;5044093;28;20518;-79
2023/07/21 02:05:22;;;;;;;2.03;1.45;;;20.80;75.10;;;;;;5039199;28;20030;-79
2023/07/21 02:07:49;;;;;;;2.97;1.42;;;20.90;75.10;;;;;;5028363;28;20025;-79
2023/07/21 02:10:15;;;;;;;3.65;1.83;;;20.80;75.10;;;;;;5041444;28;20021;-80
2023/07/21 02:12:41;;;;;;;5.68;1.80;;;20.80;75.80;;;;;;5044524;28;20470;-80
2023/07/21 02:15:07;;;;;;;2.92;1.63;;;20.80;75.10;;;;;;5044206;28;20119;-79
2023/07/21 02:17:33;;;;;;;3.08;1.50;;;20.80;75.10;;;;;;5044827;28;20025;-79
2023/07/21 02:19:59;;;;;;;4.05;1.42;;;20.80;75.10;;;;;;5048278;28;20029;-80
2023/07/21 02:22:25;;;;;;;4.00;1.58;;;20.80;75.10;;;;;;5030300;28;20032;-79
2023/07/21 02:24:50;;;;;;;2.15;1.80;;;20.80;75.10;;;;;;5045763;28;20068;-79
2023/07/21 02:27:16;;;;;;;2.88;1.48;;;20.80;75.10;;;;;;5038151;28;20049;-79
2023/07/21 02:29:48;;;;;;;4.80;1.77;;;20.80;75.10;;;;;;5035849;28;20588;-79
2023/07/21 02:32:14;;;;;;;3.83;1.98;;;20.80;75.10;;;;;;5040505;28;20488;-79
2023/07/21 02:34:41;;;;;;;2.25;1.40;;;20.80;75.00;;;;;;5042498;28;20033;-80
2023/07/21 02:37:06;;;;;;;2.65;1.40;;;20.80;75.00;;;;;;5040033;28;20409;-80
2023/07/21 02:39:32;;;;;;;4.45;1.60;;;20.80;75.00;;;;;;5039279;28;20022;-80
2023/07/21 02:41:59;;;;;;;11.93;1.58;;;20.80;75.00;;;;;;5037295;28;20026;-79
2023/07/21 02:44:26;;;;;;;3.67;1.13;;;20.80;75.00;;;;;;5038484;28;20096;-80
2023/07/21 02:46:52;;;;;;;2.28;1.52;;;20.80;75.10;;;;;;5018536;28;20032;-79
2023/07/21 02:49:18;;;;;;;3.67;1.63;;;20.80;75.10;;;;;;5045255;28;20481;-79
2023/07/21 02:51:44;;;;;;;8.07;1.50;;;20.80;75.10;;;;;;5045334;28;20060;-80
2023/07/21 02:54:09;;;;;;;2.97;1.40;;;20.80;75.10;;;;;;5041780;28;20045;-80
2023/07/21 02:56:35;;;;;;;5.30;1.50;;;20.80;75.20;;;;;;5043025;28;20021;-79
2023/07/21 02:59:02;;;;;;;4.72;1.80;;;20.80;75.20;;;;;;5037008;28;20043;-79
2023/07/21 03:01:28;;;;;;;3.65;1.65;;;20.80;75.10;;;;;;5040547;28;20104;-80
2023/07/21 03:03:55;;;;;;;3.38;1.77;;;20.80;75.20;;;;;;5046982;28;20500;-80
2023/07/21 03:06:21;;;;;;;6.38;1.77;;;20.80;75.20;;;;;;5043360;28;20021;-79
2023/07/21 03:08:47;;;;;;;3.10;1.77;;;20.80;75.30;;;;;;5043851;28;20032;-79
2023/07/21 03:11:13;;;;;;;6.82;1.60;;;20.80;75.30;;;;;;5039160;28;20029;-80
2023/07/21 03:13:44;;;;;;;3.10;1.42;;;20.80;75.20;;;;;;5037963;28;20018;-80
2023/07/21 03:16:12;;;;;;;2.53;1.67;;;20.80;75.30;;;;;;5043111;28;20036;-80
2023/07/21 03:18:37;;;;;;;2.83;1.73;;;20.80;75.30;;;;;;5046579;28;20469;-80
2023/07/21 03:21:03;;;;;;;3.05;1.42;;;20.80;75.30;;;;;;5047598;28;20039;-80
2023/07/21 03:23:29;;;;;;;2.70;2.10;;;20.80;75.30;;;;;;5045151;28;20389;-80
2023/07/21 03:25:55;;;;;;;2.00;1.30;;;20.80;75.30;;;;;;5060598;28;20032;-79
2023/07/21 03:28:21;;;;;;;1.90;1.60;;;20.80;75.30;;;;;;5059642;28;20024;-79
2023/07/21 03:30:57;;;;;;;2.42;1.70;;;20.80;75.30;;;;;;5045468;28;20032;-79
2023/07/21 03:33:23;;;;;;;2.65;1.58;;;20.80;75.20;;;;;;5062017;28;20073;-79
2023/07/21 03:35:56;;;;;;;2.30;1.23;;;20.80;75.20;;;;;;5067984;28;20536;-79
2023/07/21 03:38:21;;;;;;;2.80;1.60;;;20.80;75.10;;;;;;5064077;28;20104;-79
2023/07/21 03:40:47;;;;;;;6.65;1.35;;;20.80;75.10;;;;;;5060230;28;20598;-79
2023/07/21 03:43:13;;;;;;;2.35;1.50;;;20.80;75.10;;;;;;5060539;28;20021;-79
2023/07/21 03:45:39;;;;;;;4.10;1.85;;;20.80;75.10;;;;;;5061530;28;20058;-80
2023/07/21 03:48:05;;;;;;;5.93;2.03;;;20.80;75.10;;;;;;5059649;28;20429;-80
2023/07/21 03:50:30;;;;;;;8.07;1.63;;;20.80;75.10;;;;;;5063867;28;20108;-79
2023/07/21 03:52:56;;;;;;;4.35;2.08;;;20.70;75.00;;;;;;5059946;28;20529;-79
2023/07/21 03:55:23;;;;;;;8.50;1.92;;;20.70;75.20;;;;;;5061910;28;20016;-79
2023/07/21 03:57:48;;;;;;;1.52;1.33;;;20.70;75.20;;;;;;5063405;28;20032;-79
2023/07/21 04:00:14;;;;;;;6.30;2.08;;;20.70;75.10;;;;;;5061929;28;20021;-79
2023/07/21 04:02:40;;;;;;;4.28;1.83;;;20.70;75.20;;;;;;5060506;28;20474;-79
2023/07/21 04:05:06;;;;;;;7.13;2.00;;;20.70;75.20;;;;;;5062547;28;20582;-80
2023/07/21 04:07:31;;;;;;;4.00;1.77;;;20.70;75.20;;;;;;5061004;28;20020;-79
2023/07/21 04:09:58;;;;;;;5.38;1.70;;;20.70;75.20;;;;;;5064253;28;20028;-79
2023/07/21 04:12:24;;;;;;;3.40;1.35;;;20.70;75.30;;;;;;5063474;28;20021;-79
2023/07/21 04:14:49;;;;;;;3.90;1.63;;;20.70;75.30;;;;;;5063530;28;20108;-80
2023/07/21 04:17:15;;;;;;;2.90;1.70;;;20.70;75.20;;;;;;5047328;28;20013;-80
2023/07/21 04:19:41;;;;;;;5.93;1.40;;;20.70;75.30;;;;;;5064372;28;20025;-79
2023/07/21 04:22:06;;;;;;;6.13;1.52;;;20.70;75.30;;;;;;5055228;28;20037;-79
2023/07/21 04:24:33;;;;;;;3.05;1.73;;;20.70;75.40;;;;;;5038868;28;20033;-79
2023/07/21 04:26:59;;;;;;;4.43;1.58;;;20.70;75.40;;;;;;5045566;28;20025;-79
2023/07/21 04:29:25;;;;;;;2.60;1.52;;;20.70;75.40;;;;;;5042566;28;20032;-79
2023/07/21 04:31:50;;;;;;;4.38;1.67;;;20.70;75.30;;;;;;5043087;28;20040;-78
2023/07/21 04:34:16;;;;;;;16.48;1.83;;;20.70;75.40;;;;;;5040155;28;20378;-79
2023/07/21 04:36:42;;;;;;;6.32;1.70;;;20.70;75.40;;;;;;5040130;28;20024;-79
2023/07/21 04:39:07;;;;;;;3.38;1.50;;;20.70;75.50;;;;;;5044200;28;20104;-81
2023/07/21 04:41:33;;;;;;;3.25;1.55;;;20.70;75.60;;;;;;5041139;28;20417;-79
2023/07/21 04:43:59;;;;;;;2.88;1.60;;;20.60;75.00;;;;;;5043117;28;20029;-78
2023/07/21 04:46:25;;;;;;;2.88;1.80;;;20.60;75.10;;;;;;5043163;28;20534;-79
2023/07/21 04:48:50;;;;;;;4.20;1.92;;;20.60;75.20;;;;;;5041691;28;20030;-79
2023/07/21 04:51:16;;;;;;;6.63;1.92;;;20.70;75.30;;;;;;5037428;28;20057;-79
2023/07/21 04:53:42;;;;;;;8.07;1.80;;;20.70;75.30;;;;;;5039635;28;20021;-80
2023/07/21 04:56:09;;;;;;;7.53;1.83;;;20.70;75.30;;;;;;5020098;28;20041;-80
2023/07/21 04:58:34;;;;;;;3.83;1.73;;;20.70;75.40;;;;;;5041279;28;20017;-79
2023/07/21 05:01:00;;;;;;;5.03;2.42;;;20.70;75.40;;;;;;5046023;28;20533;-80
2023/07/21 05:03:25;;;;;;;6.15;1.77;;;20.70;75.50;;;;;;5039156;28;20037;-80
2023/07/21 05:05:51;;;;;;;8.63;2.00;;;20.70;75.60;;;;;;5041131;28;20067;-79
2023/07/21 05:08:16;;;;;;;4.88;2.17;;;20.70;75.60;;;;;;5039327;28;20021;-79
2023/07/21 05:10:42;;;;;;;3.60;1.80;;;20.70;75.70;;;;;;5037632;28;20029;-80
2023/07/21 05:13:08;;;;;;;2.70;1.80;;;20.70;75.80;;;;;;5037676;28;20017;-80
2023/07/21 05:15:36;;;;;;;7.05;1.63;;;20.70;75.80;;;;;;5042126;28;20010;-80
2023/07/21 05:18:02;;;;;;;3.65;1.90;;;20.70;75.90;;;;;;5052508;28;20021;-79
2023/07/21 05:20:28;;;;;;;5.05;1.80;;;20.70;76.00;;;;;;5042169;28;20022;-80
2023/07/21 05:22:54;;;;;;;3.85;1.98;;;20.70;76.10;;;;;;5045610;28;20083;-80
2023/07/21 05:25:19;;;;;;;11.18;1.90;;;20.70;76.10;;;;;;5044184;28;20099;-80
2023/07/21 05:27:49;;;;;;;7.22;1.67;;;20.70;76.30;;;;;;5041512;28;20017;-79
2023/07/21 05:30:15;;;;;;;5.03;1.92;;;20.70;76.30;;;;;;5034434;28;20057;-80
2023/07/21 05:32:41;;;;;;;4.95;2.35;;;20.70;76.50;;;;;;5044925;28;20029;-80
2023/07/21 05:35:10;;;;;;;4.00;2.20;;;20.70;76.50;;;;;;5041891;28;20063;-79
2023/07/21 05:37:39;;;;;;;10.63;2.33;;;20.70;77.30;;;;;;5043841;28;20463;-79
2023/07/21 05:40:06;;;;;;;8.23;2.33;;;20.70;76.50;;;;;;5041046;28;20013;-80
2023/07/21 05:42:32;;;;;;;13.30;2.40;;;20.70;76.60;;;;;;5039267;28;20018;-79
2023/07/21 05:44:58;;;;;;;7.80;2.08;;;20.70;76.70;;;;;;5019343;28;20024;-80
2023/07/21 05:47:23;;;;;;;5.55;2.03;;;20.70;76.80;;;;;;5041399;28;20017;-80
2023/07/21 05:49:49;;;;;;;4.55;1.70;;;20.70;76.80;;;;;;5045438;28;20021;-80
2023/07/21 05:52:14;;;;;;;8.50;2.30;;;20.70;77.00;;;;;;5043128;28;20044;-80
2023/07/21 05:54:41;;;;;;;6.20;2.13;;;20.70;77.00;;;;;;5046754;28;20025;-80
2023/07/21 05:57:07;;;;;;;3.38;1.75;;;20.70;77.10;;;;;;5040957;28;20017;-80
2023/07/21 05:59:33;;;;;;;3.95;1.98;;;20.70;77.10;;;;;;5038830;28;20033;-80
2023/07/21 06:01:59;;;;;;;6.85;1.92;;;20.70;77.30;;;;;;5043654;28;20124;-80
2023/07/21 06:04:25;;;;;;;7.22;1.80;;;20.70;77.20;;;;;;5047551;28;20025;-80
2023/07/21 06:06:50;;;;;;;3.13;1.80;;;20.70;77.30;;;;;;5047112;28;20112;-80
2023/07/21 06:09:17;;;;;;;13.05;2.05;;;20.70;77.40;;;;;;5047368;28;20063;-80
2023/07/21 06:11:42;;;;;;;6.72;2.20;;;20.70;77.40;;;;;;5043166;28;20059;-80
2023/07/21 06:14:08;;;;;;;2.47;1.48;;;20.70;77.60;;;;;;5038223;28;20477;-80
2023/07/21 06:16:34;;;;;;;4.32;1.70;;;20.70;77.60;;;;;;5023932;28;20087;-80
2023/07/21 06:19:00;;;;;;;3.83;2.40;;;20.70;77.60;;;;;;5047934;28;20025;-80
2023/07/21 06:21:26;;;;;;;5.03;2.08;;;20.70;77.60;;;;;;5045395;28;20025;-80
2023/07/21 06:23:53;;;;;;;8.50;1.85;;;20.80;77.60;;;;;;5066928;28;20467;-80
2023/07/21 06:26:19;;;;;;;8.05;1.73;;;20.80;77.60;;;;;;5065214;28;20029;-80
2023/07/21 06:28:44;;;;;;;4.20;2.53;;;20.80;77.60;;;;;;5063715;28;20036;-80
2023/07/21 06:31:11;;;;;;;2.67;1.77;;;20.80;77.70;;;;;;5064099;28;20025;-80
2023/07/21 06:33:37;;;;;;;12.38;1.90;;;20.80;77.60;;;;;;5064739;28;20025;-80
2023/07/21 06:36:03;;;;;;;5.00;1.95;;;20.80;77.70;;;;;;5059242;28;20012;-80
2023/07/21 06:38:28;;;;;;;5.60;1.77;;;20.80;77.80;;;;;;5068770;28;20025;-80
2023/07/21 06:40:54;;;;;;;3.83;1.77;;;20.80;77.90;;;;;;5064657;28;20352;-80
2023/07/21 06:43:19;;;;;;;2.85;1.77;;;20.80;77.80;;;;;;5061581;28;20034;-80
2023/07/21 06:45:45;;;;;;;6.60;1.70;;;20.80;77.90;;;;;;5060863;28;20028;-80
2023/07/21 06:48:11;;;;;;;5.13;1.80;;;20.80;78.00;;;;;;5066558;28;20032;-80
2023/07/21 06:50:38;;;;;;;1.90;1.40;;;20.80;78.00;;;;;;5063661;28;20065;-80
2023/07/21 06:53:05;;;;;;;3.08;1.40;;;20.80;78.00;;;;;;5062032;28;20522;-81
2023/07/21 06:55:35;;;;;;;6.07;1.67;;;20.80;78.10;;;;;;5064024;28;20480;-80
2023/07/21 06:58:01;;;;;;;3.63;1.42;;;20.80;78.40;;;;;;5060862;28;20074;-81
2023/07/21 07:00:27;;;;;;;6.38;1.60;;;20.80;78.20;;;;;;5064241;28;20093;-81
2023/07/21 07:02:56;;;;;;;3.30;1.50;;;20.80;78.50;;;;;;5070156;28;20021;-81
2023/07/21 07:05:23;;;;;;;6.00;1.58;;;20.80;78.90;;;;;;5061413;28;20036;-80
2023/07/21 07:07:53;;;;;;;5.43;1.70;;;20.80;79.00;;;;;;5066324;28;20044;-80
2023/07/21 07:10:19;;;;;;;4.60;1.80;;;20.90;79.20;;;;;;5067522;28;20016;-80
2023/07/21 07:12:45;;;;;;;6.30;1.40;;;20.90;79.20;;;;;;5066680;28;20024;-81
2023/07/21 07:15:11;;;;;;;3.45;1.50;;;20.90;79.50;;;;;;5063875;28;20021;-80
2023/07/21 07:17:37;;;;;;;1.50;1.33;;;20.90;79.50;;;;;;5066403;28;20410;-81
2023/07/21 07:20:04;;;;;;;8.68;1.80;;;20.90;79.60;;;;;;5063044;28;20099;-81
2023/07/21 07:22:29;;;;;;;1.65;1.40;;;20.90;79.60;;;;;;5055254;28;20032;-81
2023/07/21 07:24:55;;;;;;;6.35;2.17;;;20.90;79.60;;;;;;5033660;28;20017;-80
2023/07/21 07:27:21;;;;;;;5.38;1.63;;;20.90;79.80;;;;;;5044079;28;20021;-81
2023/07/21 07:29:47;;;;;;;17.02;2.00;;;21.00;80.10;;;;;;5041537;28;20029;-81
2023/07/21 07:32:13;;;;;;;5.07;1.80;;;20.90;79.90;;;;;;5036312;28;20053;-81
2023/07/21 07:34:40;;;;;;;4.40;1.65;;;20.90;80.20;;;;;;5042965;28;20107;-81
2023/07/21 07:37:06;;;;;;;4.30;1.83;;;20.90;80.20;;;;;;5043299;28;20053;-81
2023/07/21 07:39:32;;;;;;;4.97;1.95;;;20.90;80.30;;;;;;5040796;28;20486;-81
2023/07/21 07:41:58;;;;;;;3.25;1.85;;;20.90;80.20;;;;;;5037456;28;20064;-81
2023/07/21 07:44:23;;;;;;;12.95;2.60;;;21.00;80.00;;;;;;5040783;28;20024;-80
2023/07/21 07:46:49;;;;;;;3.78;2.05;;;21.00;80.30;;;;;;5023978;28;20640;-80
2023/07/21 07:49:15;;;;;;;8.45;2.20;;;21.00;81.30;;;;;;5022760;28;20029;-80
2023/07/21 07:51:40;;;;;;;11.32;1.98;;;21.00;80.60;;;;;;5042454;28;20021;-80
2023/07/21 07:54:07;;;;;;;7.05;2.05;;;21.00;80.50;;;;;;5015396;28;20025;-80
2023/07/21 07:56:33;;;;;;;5.10;1.90;;;21.00;80.40;;;;;;5039795;28;20462;-81
2023/07/21 07:58:59;;;;;;;4.88;2.00;;;21.00;80.60;;;;;;5023419;28;20493;-79
2023/07/21 08:01:26;;;;;;;9.05;1.70;;;21.00;80.80;;;;;;5035788;28;20048;-82
2023/07/21 08:03:53;;;;;;;3.30;1.48;;;21.00;80.90;;;;;;5039583;28;20026;-80
2023/07/21 08:06:19;;;;;;;2.00;1.42;;;21.00;80.90;;;;;;5040571;28;20025;-81
2023/07/21 08:08:45;;;;;;;5.68;1.83;;;21.00;81.00;;;;;;5032194;28;20496;-81
2023/07/21 08:11:11;;;;;;;9.48;2.42;;;21.00;81.20;;;;;;5036005;28;20080;-81
2023/07/21 08:13:38;;;;;;;5.35;1.30;;;21.00;81.10;;;;;;5037191;28;20017;-81
2023/07/21 08:16:13;;;;;;;2.47;1.83;;;21.00;81.30;;;;;;5041487;28;20013;-80
2023/07/21 08:18:39;;;;;;;4.57;1.50;;;21.00;81.30;;;;;;5041180;28;20037;-80
2023/07/21 08:21:22;;;;;;;4.25;1.58;;;21.00;81.40;;;;;;5039189;28;20033;-80
2023/07/21 08:23:49;;;;;;;3.58;1.75;;;21.00;81.60;;;;;;5037379;28;20059;-81
2023/07/21 08:26:15;;;;;;;2.85;1.55;;;21.00;81.80;;;;;;5032553;28;20057;-80
2023/07/21 08:28:41;;;;;;;8.05;1.83;;;21.00;81.80;;;;;;5037022;28;20048;-80
2023/07/21 08:31:06;;;;;;;4.65;1.65;;;21.00;81.80;;;;;;5033676;28;20040;-80
2023/07/21 08:33:32;;;;;;;5.47;1.73;;;21.00;81.80;;;;;;5039938;28;20029;-80
2023/07/21 08:35:57;;;;;;;8.07;1.80;;;21.00;81.90;;;;;;5025340;28;20409;-80
2023/07/21 08:38:24;;;;;;;2.38;1.60;;;21.00;81.90;;;;;;5039888;28;20022;-81
2023/07/21 08:40:55;;;;;;;1.80;1.58;;;21.00;82.00;;;;;;5033965;28;20037;-80
2023/07/21 08:43:21;;;;;;;2.25;1.48;;;21.00;81.90;;;;;;5017135;28;20474;-80
2023/07/21 08:45:49;;;;;;;3.10;1.77;;;21.00;82.20;;;;;;5037207;28;20163;-80
2023/07/21 08:48:17;;;;;;;2.22;1.27;;;21.00;82.30;;;;;;5038169;28;20034;-81
2023/07/21 08:50:48;;;;;;;4.68;1.65;;;21.00;82.50;;;;;;5044411;28;20029;-81
2023/07/21 08:53:14;;;;;;;2.00;1.30;;;21.00;82.50;;;;;;5039903;28;20101;-80
2023/07/21 08:55:39;;;;;;;2.35;1.33;;;21.00;82.70;;;;;;5037031;28;20164;-80
2023/07/21 08:58:06;;;;;;;4.38;1.45;;;21.00;82.40;;;;;;5036195;28;20009;-80
2023/07/21 09:00:32;;;;;;;5.20;1.65;;;21.00;82.40;;;;;;5037669;28;20037;-80
2023/07/21 09:03:04;;;;;;;2.28;1.48;;;21.00;82.40;;;;;;5037736;28;20088;-79
2023/07/21 09:05:30;;;;;;;3.00;1.40;;;21.00;82.40;;;;;;5040047;28;20075;-80
2023/07/21 09:07:56;;;;;;;7.13;1.67;;;21.00;82.50;;;;;;5040486;28;20017;-79
2023/07/21 09:10:33;;;;;;;6.93;1.30;;;21.10;82.40;;;;;;5039621;28;20557;-78
2023/07/21 09:13:00;;;;;;;2.03;1.30;;;21.00;82.40;;;;;;5033520;28;20014;-77
2023/07/21 09:15:26;;;;;;;11.40;1.85;;;21.00;82.00;;;;;;5023328;28;20025;-78
2023/07/21 09:17:52;;;;;;;3.85;1.08;;;21.00;78.40;;;;;;5042133;28;20096;-81
2023/07/21 09:20:18;;;;;;;2.42;1.38;;;21.10;78.60;;;;;;5043138;28;20033;-81
2023/07/21 09:22:50;;;;;;;5.75;1.40;;;21.10;78.90;;;;;;5045419;28;20518;-81
2023/07/21 09:25:20;;;;;;;2.42;1.42;;;21.10;80.20;;;;;;5039611;28;20033;-81
2023/07/21 09:27:57;;;;;;;3.03;1.33;;;21.10;81.10;;;;;;5044026;28;20608;-81
2023/07/21 09:30:23;;;;;;;2.92;1.50;;;21.10;81.40;;;;;;5022236;28;20062;-80
2023/07/21 09:32:55;;;;;;;2.22;1.55;;;21.10;81.90;;;;;;5040193;28;20017;-80
2023/07/21 09:35:22;;;;;;;3.90;1.58;;;21.10;81.80;;;;;;5040597;28;20101;-81
2023/07/21 09:37:51;;;;;;;2.97;1.60;;;21.00;81.60;;;;;;5041413;28;20079;-80
2023/07/21 09:40:27;;;;;;;1.77;1.30;;;21.10;82.10;;;;;;5039799;28;20025;-81
2023/07/21 09:42:53;;;;;;;2.13;1.30;;;21.00;82.00;;;;;;5041841;28;20075;-81
2023/07/21 09:45:21;;;;;;;5.22;1.60;;;21.10;81.90;;;;;;5044147;28;20017;-81
2023/07/21 09:47:48;;;;;;;6.32;1.30;;;21.10;82.00;;;;;;5028674;28;20713;-81
2023/07/21 09:50:13;;;;;;;1.92;1.08;;;21.10;82.10;;;;;;5039008;28;20029;-81
2023/07/21 09:52:41;;;;;;;2.65;1.20;;;21.10;82.00;;;;;;5042459;28;20394;-80
2023/07/21 09:55:13;;;;;;;4.15;1.77;;;21.10;81.90;;;;;;5040314;28;20471;-81
2023/07/21 09:57:45;;;;;;;10.30;1.50;;;21.20;75.10;;;;;;5027120;28;20017;-81
2023/07/21 10:00:14;;;;;;;2.35;1.50;;;21.30;72.10;;;;;;5025626;28;20075;-81
2023/07/21 10:02:45;;;;;;;2.38;1.10;;;21.50;69.40;;;;;;5044333;28;20424;-81
2023/07/21 10:05:11;;;;;;;3.58;1.55;;;21.60;67.90;;;;;;5047429;28;20465;-80
2023/07/21 10:07:49;;;;;;;1.75;1.30;;;21.50;67.40;;;;;;5041219;28;20020;-81
2023/07/21 10:10:16;;;;;;;8.38;1.25;;;21.70;65.80;;;;;;5045421;28;20067;-82
2023/07/21 10:12:52;;;;;;;7.93;1.45;;;21.70;64.50;;;;;;5029372;28;20108;-80
2023/07/21 10:15:28;;;;;;;4.55;1.80;;;21.60;64.40;;;;;;5040820;28;20538;-81
2023/07/21 10:17:56;;;;;;;3.67;1.40;;;21.50;64.30;;;;;;5047189;28;21452;-81
2023/07/21 10:20:55;;;;;;;2.15;1.80;;;21.40;64.50;;;;;;5047689;28;20097;-80
2023/07/21 10:23:34;;;;;;;5.43;1.40;;;21.40;62.90;;;;;;5059687;28;20044;-81
2023/07/21 10:26:01;;;;;;;2.05;1.35;;;21.30;63.90;;;;;;5068945;28;20103;-81
2023/07/21 10:28:31;;;;;;;1.90;1.35;;;21.30;64.20;;;;;;5052290;28;20524;-81
2023/07/21 10:31:22;;;;;;;4.03;1.80;;;21.30;63.10;;;;;;5053036;28;20081;-80
2023/07/21 10:34:11;;;;;;;1.80;1.35;;;21.30;66.00;;;;;;5068755;28;20465;-80
2023/07/21 10:36:51;;;;;;;2.03;1.33;;;21.30;68.20;;;;;;5068035;28;20043;-81
2023/07/21 10:39:23;;;;;;;4.65;1.70;;;21.30;65.30;;;;;;5051974;28;20654;-81
2023/07/21 10:41:50;;;;;;;3.97;1.50;;;21.20;64.90;;;;;;5052912;28;20114;-81
2023/07/21 10:44:16;;;;;;;4.22;1.63;;;21.20;65.40;;;;;;5070173;28;20024;-81
2023/07/21 10:46:47;;;;;;;2.88;1.60;;;21.20;66.80;;;;;;5068288;28;20033;-80
2023/07/21 10:49:14;;;;;;;5.20;1.65;;;21.20;65.80;;;;;;5070796;28;20028;-80
2023/07/21 10:51:42;;;;;;;3.95;1.60;;;21.20;64.70;;;;;;5046334;28;20555;-80
2023/07/21 10:54:09;;;;;;;5.53;1.45;;;21.20;65.80;;;;;;5068269;28;20070;-80
2023/07/21 10:56:46;;;;;;;2.35;1.63;;;21.20;64.30;;;;;;5070560;28;20044;-80
2023/07/21 10:59:13;;;;;;;4.03;1.65;;;21.20;66.30;;;;;;5068373;28;20465;-80
2023/07/21 11:01:46;;;;;;;3.78;1.58;;;21.20;68.50;;;;;;5053425;28;20448;-80
2023/07/21 11:04:17;;;;;;;3.33;1.63;;;21.20;69.70;;;;;;5058762;28;20463;-80
2023/07/21 11:06:43;;;;;;;;;;;21.10;70.30;;;;;;5068435;28;20441;-80
2023/07/21 11:09:12;;;;;;;9.30;1.63;;;21.10;71.40;;;;;;5066462;28;19944;-79
2023/07/21 11:11:42;;;;;;;5.47;1.53;;;21.20;70.70;;;;;;5061265;28;20501;-80
2023/07/21 11:14:15;;;;;;;2.47;1.30;;;21.20;68.90;;;;;;5066559;28;20036;-79
2023/07/21 11:16:49;;;;;;;4.88;1.30;;;21.20;70.70;;;;;;5072877;28;20428;-80
2023/07/21 11:19:16;;;;;;;5.82;1.25;;;21.20;70.40;;;;;;5048490;28;20025;-80
2023/07/21 11:21:46;;;;;;;1.40;1.25;;;21.30;69.20;;;;;;5049752;28;20025;-80
2023/07/21 11:24:18;;;;;;;;;;;21.30;67.60;;;;;;5037133;28;20546;-80
2023/07/21 11:26:48;;;;;;;4.35;1.17;;;21.30;68.50;;;;;;5025945;28;19956;-80
2023/07/21 11:29:18;;;;;;;4.65;1.17;;;21.30;68.70;;;;;;5040939;28;20386;-80
2023/07/21 11:31:44;;;;;;;7.57;1.38;;;21.30;68.90;;;;;;5038736;28;20172;-81
2023/07/21 11:34:20;;;;;;;2.75;1.63;;;21.30;68.70;;;;;;5029319;28;20085;-81
2023/07/21 11:36:49;;;;;;;2.30;1.25;;;21.30;69.10;;;;;;5036431;28;20029;-80
2023/07/21 11:39:22;;;;;;;1.90;1.27;;;21.40;68.80;;;;;;5038046;28;20493;-80
2023/07/21 11:41:54;;;;;;;4.55;1.40;;;21.40;68.50;;;;;;5039136;28;20116;-80
2023/07/21 11:44:23;;;;;;;3.95;1.30;;;21.40;67.90;;;;;;5041511;28;20025;-80
2023/07/21 11:46:56;;;;;;;3.13;1.60;;;21.30;66.80;;;;;;5041620;28;20082;-80
2023/07/21 11:49:27;;;;;;;3.72;1.45;;;21.40;67.50;;;;;;5026102;28;20025;-80
2023/07/21 11:52:00;;;;;;;1.55;1.15;;;21.30;70.60;;;;;;5017555;28;20067;-80
2023/07/21 11:54:35;;;;;;;3.13;1.52;;;21.30;69.50;;;;;;5029410;28;20120;-80
2023/07/21 11:57:01;;;;;;;1.80;1.38;;;21.30;67.50;;;;;;5037176;28;20013;-80
2023/07/21 11:59:28;;;;;;;3.13;1.50;;;21.20;67.40;;;;;;5040094;28;20088;-80
2023/07/21 12:01:54;;;;;;;3.10;1.55;;;21.20;66.20;;;;;;5037447;28;20032;-80
2023/07/21 12:04:21;;;;;;;2.30;1.40;;;21.20;68.30;;;;;;5037873;28;20067;-80
2023/07/21 12:06:48;;;;;;;1.80;1.38;;;21.10;71.50;;;;;;5020814;28;20464;-80
2023/07/21 12:09:14;;;;;;;2.20;1.70;;;21.10;72.90;;;;;;5045521;28;20066;-80
2023/07/21 12:11:40;;;;;;;2.67;1.60;;;21.10;74.00;;;;;;5023677;28;20029;-80
2023/07/21 12:14:05;;;;;;;1.80;1.27;;;21.00;76.10;;;;;;5020616;28;20017;-79
2023/07/21 12:16:32;;;;;;;5.93;1.88;;;21.00;78.10;;;;;;5043167;28;20096;-80
2023/07/21 12:18:58;;;;;;;3.80;1.83;;;21.10;78.90;;;;;;5043555;28;20052;-80
2023/07/21 12:21:27;;;;;;;3.15;1.42;;;21.20;77.50;;;;;;5043648;28;20068;-81
2023/07/21 12:23:53;;;;;;;1.88;1.20;;;21.30;76.30;;;;;;5045116;28;20037;-80
2023/07/21 12:26:19;;;;;;;1.92;1.33;;;21.40;71.60;;;;;;5059812;28;20073;-80
2023/07/21 12:28:49;;;;;;;3.63;1.88;;;21.40;70.80;;;;;;5058308;28;20026;-80
2023/07/21 12:31:15;;;;;;;4.97;1.40;;;21.40;71.40;;;;;;5058774;28;20461;-80
2023/07/21 12:33:41;;;;;;;2.60;1.50;;;21.30;71.60;;;;;;5058729;28;20047;-80
2023/07/21 12:36:07;;;;;;;2.75;1.40;;;21.40;73.10;;;;;;5060781;28;20466;-80
2023/07/21 12:38:33;;;;;;;2.45;1.42;;;21.30;74.20;;;;;;5056491;28;20032;-80
2023/07/21 12:40:59;;;;;;;4.50;1.77;;;21.30;73.80;;;;;;5043519;28;20033;-80
2023/07/21 12:43:24;;;;;;;2.63;1.30;;;21.30;72.50;;;;;;5042240;28;20055;-80
2023/07/21 12:45:50;;;;;;;3.60;1.67;;;21.20;74.10;;;;;;5059343;28;20040;-80
2023/07/21 12:48:16;;;;;;;3.67;2.30;;;21.20;75.00;;;;;;5050082;28;20070;-80
2023/07/21 12:50:41;;;;;;;3.33;1.70;;;21.20;76.70;;;;;;5060457;28;20086;-80